Time;durP1;ratioP1;P1;durP2;ratioP2;P2;SDS_P1;SDS_P2;PMS_P1;PMS_P2;Temp;Humidity;BMP_temperature;BMP_pressure;BME280_temperature;BME280_humidity;BME280_pressure;Samples;Min_cycle;Max_cycle;Signal;HPM_P1;HPM_P2
2023/12/07 00:00:50;;;;;;;7.82;4.68;;;;;;;;;;5040779;28;20041;-86
2023/12/07 00:03:16;;;;;;;6.55;4.50;;;;;;;;;;5044995;28;20499;-86
2023/12/07 00:05:41;;;;;;;6.30;4.53;;;;;;;;;;5030061;28;20030;-85
2023/12/07 00:08:10;;;;;;;7.20;4.32;;;;;;;;;;5051150;28;20033;-86
2023/12/07 00:10:36;;;;;;;7.57;4.63;;;;;;;;;;5052045;28;20378;-86
2023/12/07 00:13:02;;;;;;;7.00;4.55;;;;;;;;;;5044412;28;20085;-87
2023/12/07 00:15:27;;;;;;;6.72;4.45;;;;;;;;;;5048481;28;20047;-87
2023/12/07 00:17:53;;;;;;;6.50;4.85;;;;;;;;;;5049054;28;20510;-85
2023/12/07 00:20:18;;;;;;;6.43;4.13;;;;;;;;;;5049079;28;20542;-85
2023/12/07 00:22:43;;;;;;;7.18;4.30;;;;;;;;;;5048459;28;20086;-86
2023/12/07 00:25:09;;;;;;;7.20;4.22;;;;;;;;;;5050523;28;20029;-86
2023/12/07 00:27:34;;;;;;;7.88;4.97;;;;;;;;;;5052740;28;20037;-86
2023/12/07 00:30:00;;;;;;;8.68;5.05;;;;;;;;;;5052395;28;20033;-86
2023/12/07 00:32:27;;;;;;;9.57;5.28;;;;;;;;;;5052773;28;20033;-85
2023/12/07 00:34:53;;;;;;;9.20;4.95;;;;;;;;;;5049722;28;20041;-86
2023/12/07 00:37:18;;;;;;;7.70;4.75;;;;;;;;;;5052950;28;20079;-85
2023/12/07 00:39:43;;;;;;;8.27;5.18;;;;;;;;;;5052098;28;20048;-86
2023/12/07 00:42:09;;;;;;;10.18;4.72;;;;;;;;;;5050550;28;20037;-86
2023/12/07 00:44:39;;;;;;;7.32;4.63;;;;;;;;;;5050012;28;20042;-86
2023/12/07 00:47:04;;;;;;;8.25;5.13;;;;;;;;;;5046984;28;20033;-85
2023/12/07 00:49:30;;;;;;;7.90;5.38;;;;;;;;;;5054129;28;20037;-86
2023/12/07 00:51:55;;;;;;;7.15;5.05;;;;;;;;;;5053050;28;20108;-85
2023/12/07 00:54:21;;;;;;;5.70;4.22;;;;;;;;;;5052352;28;20032;-85
2023/12/07 00:56:46;;;;;;;6.88;4.75;;;;;;;;;;5050600;28;20045;-85
2023/12/07 00:59:12;;;;;;;7.15;5.20;;;;;;;;;;5050719;28;20491;-85
2023/12/07 01:01:38;;;;;;;6.78;4.72;;;;;;;;;;5049093;28;20088;-85
2023/12/07 01:04:05;;;;;;;7.63;4.78;;;;;;;;;;5046604;28;20097;-86
2023/12/07 01:06:31;;;;;;;7.10;5.00;;;;;;;;;;5048752;28;20025;-86
2023/12/07 01:08:57;;;;;;;7.55;4.93;;;;;;;;;;5049587;28;20091;-86
2023/12/07 01:11:23;;;;;;;7.28;4.88;;;;;;;;;;5048644;28;20132;-86
2023/12/07 01:13:48;;;;;;;7.20;4.78;;;;;;;;;;5051120;28;20107;-86
2023/12/07 01:16:14;;;;;;;7.63;4.88;;;;;;;;;;5053218;28;20064;-85
2023/12/07 01:18:40;;;;;;;7.28;4.68;;;;;;;;;;5052704;28;20037;-86
2023/12/07 01:21:05;;;;;;;6.97;4.70;;;;;;;;;;5050668;28;20029;-85
2023/12/07 01:23:31;;;;;;;7.07;4.63;;;;;;;;;;5049856;28;20041;-86
2023/12/07 01:25:57;;;;;;;6.88;4.60;;;;;;;;;;5048819;28;20061;-85
2023/12/07 01:28:22;;;;;;;7.40;4.97;;;;;;;;;;5045727;28;20052;-87
2023/12/07 01:30:48;;;;;;;8.73;5.63;;;;;;;;;;5050638;28;20112;-85
2023/12/07 01:33:13;;;;;;;7.40;5.15;;;;;;;;;;5054976;28;20025;-85
2023/12/07 01:35:39;;;;;;;8.45;5.60;;;;;;;;;;5048146;28;20086;-85
2023/12/07 01:38:04;;;;;;;9.13;5.70;;;;;;;;;;5054536;28;20033;-85
2023/12/07 01:40:30;;;;;;;8.75;5.60;;;;;;;;;;5049365;28;20028;-86
2023/12/07 01:42:56;;;;;;;8.82;5.78;;;;;;;;;;5052246;28;20128;-86
2023/12/07 01:45:21;;;;;;;9.85;5.70;;;;;;;;;;5042341;28;20033;-86
2023/12/07 01:47:49;;;;;;;13.13;7.10;;;;;;;;;;5044957;28;20032;-86
2023/12/07 01:50:15;;;;;;;20.23;10.40;;;;;;;;;;5046597;28;20034;-86
2023/12/07 01:52:47;;;;;;;24.17;11.95;;;;;;;;;;5051510;28;20036;-86
2023/12/07 01:55:14;;;;;;;12.27;8.23;;;;;;;;;;5053527;28;20100;-84
2023/12/07 01:57:41;;;;;;;10.77;7.10;;;;;;;;;;5049232;28;20031;-85
2023/12/07 02:00:09;;;;;;;10.45;6.60;;;;;;;;;;5050056;28;20033;-86
2023/12/07 02:02:34;;;;;;;8.55;5.65;;;;;;;;;;5049680;28;20052;-86
2023/12/07 02:05:00;;;;;;;8.80;6.45;;;;;;;;;;5045218;28;20034;-86
2023/12/07 02:07:27;;;;;;;9.43;6.30;;;;;;;;;;5048329;28;20075;-85
2023/12/07 02:09:52;;;;;;;8.23;5.63;;;;;;;;;;5047943;28;20064;-86
2023/12/07 02:12:19;;;;;;;9.80;5.80;;;;;;;;;;5053793;28;20052;-85
2023/12/07 02:14:45;;;;;;;9.73;6.38;;;;;;;;;;5050230;28;20037;-85
2023/12/07 02:17:21;;;;;;;9.10;6.47;;;;;;;;;;5051802;28;20037;-85
2023/12/07 02:20:10;;;;;;;8.75;5.88;;;;;;;;;;5048177;28;20045;-85
2023/12/07 02:22:55;;;;;;;8.13;5.75;;;;;;;;;;5041137;28;20486;-84
2023/12/07 02:25:31;;;;;;;8.65;5.88;;;;;;;;;;5041439;28;20037;-84
2023/12/07 02:27:56;;;;;;;8.75;6.03;;;;;;;;;;5040391;28;20117;-86
2023/12/07 02:30:22;;;;;;;8.63;5.85;;;;;;;;;;5045726;28;20053;-86
2023/12/07 02:32:48;;;;;;;7.43;5.35;;;;;;;;;;5045742;28;20025;-86
2023/12/07 02:35:14;;;;;;;10.27;6.68;;;;;;;;;;5049648;28;20036;-86
2023/12/07 02:37:50;;;;;;;9.45;6.20;;;;;;;;;;5043438;28;20038;-86
2023/12/07 02:40:22;;;;;;;9.88;6.45;;;;;;;;;;5048102;28;20089;-87
2023/12/07 02:42:49;;;;;;;10.38;6.97;;;;;;;;;;5053390;28;20045;-86
2023/12/07 02:45:15;;;;;;;10.50;6.60;;;;;;;;;;5047437;28;20431;-85
2023/12/07 02:47:43;;;;;;;9.20;6.47;;;;;;;;;;5046612;28;20048;-85
2023/12/07 02:50:09;;;;;;;12.40;7.18;;;;;;;;;;5041012;28;20065;-85
2023/12/07 02:52:35;;;;;;;11.02;7.00;;;;;;;;;;5047174;28;20037;-85
2023/12/07 02:55:00;;;;;;;10.70;7.03;;;;;;;;;;5048513;28;20091;-86
2023/12/07 02:57:26;;;;;;;10.15;6.70;;;;;;;;;;5046839;28;20037;-85
2023/12/07 02:59:51;;;;;;;10.20;6.72;;;;;;;;;;5042941;28;20025;-86
2023/12/07 03:02:17;;;;;;;10.02;7.03;;;;;;;;;;5051897;28;20033;-86
2023/12/07 03:04:42;;;;;;;10.70;6.97;;;;;;;;;;5048281;28;20053;-85
2023/12/07 03:07:08;;;;;;;10.73;6.47;;;;;;;;;;5047151;28;20033;-85
2023/12/07 03:09:33;;;;;;;11.30;6.72;;;;;;;;;;5040614;28;20030;-86
2023/12/07 03:11:59;;;;;;;10.27;7.00;;;;;;;;;;5047203;28;20306;-86
2023/12/07 03:14:24;;;;;;;11.52;7.47;;;;;;;;;;5047009;28;20148;-85
2023/12/07 03:16:50;;;;;;;11.10;7.45;;;;;;;;;;5050018;28;20032;-87
2023/12/07 03:19:15;;;;;;;13.70;8.05;;;;;;;;;;5052128;28;20511;-86
2023/12/07 03:21:42;;;;;;;9.48;6.22;;;;;;;;;;5045404;28;20044;-86
2023/12/07 03:24:08;;;;;;;11.60;7.40;;;;;;;;;;5050873;28;20045;-85
2023/12/07 03:26:34;;;;;;;10.80;7.50;;;;;;;;;;5048735;28;20064;-86
2023/12/07 03:28:59;;;;;;;12.18;7.82;;;;;;;;;;5048046;28;20036;-86
2023/12/07 03:31:25;;;;;;;12.07;7.95;;;;;;;;;;5041472;28;20075;-85
2023/12/07 03:33:50;;;;;;;13.50;8.30;;;;;;;;;;5044184;28;20041;-86
2023/12/07 03:36:16;;;;;;;14.10;7.95;;;;;;;;;;5047645;28;20037;-86
2023/12/07 03:38:42;;;;;;;13.43;8.15;;;;;;;;;;5049720;28;20033;-86
2023/12/07 03:41:08;;;;;;;12.30;7.47;;;;;;;;;;5050950;28;20032;-86
2023/12/07 03:43:33;;;;;;;13.90;8.45;;;;;;;;;;5051324;28;20101;-86
2023/12/07 03:45:59;;;;;;;12.73;7.78;;;;;;;;;;5050171;28;20116;-86
2023/12/07 03:48:24;;;;;;;11.45;7.55;;;;;;;;;;5045801;28;20037;-85
2023/12/07 03:50:50;;;;;;;12.10;7.55;;;;;;;;;;5036349;28;20569;-85
2023/12/07 03:53:15;;;;;;;11.25;7.78;;;;;;;;;;5042627;28;20459;-88
2023/12/07 03:55:41;;;;;;;11.85;7.97;;;;;;;;;;5039145;28;20033;-89
2023/12/07 03:58:07;;;;;;;14.27;8.88;;;;;;;;;;5042034;28;20093;-87
2023/12/07 04:00:32;;;;;;;15.45;8.75;;;;;;;;;;5039800;28;20038;-87
2023/12/07 04:02:59;;;;;;;12.63;7.97;;;;;;;;;;5038989;28;20119;-87
2023/12/07 04:05:24;;;;;;;14.98;9.40;;;;;;;;;;5040133;28;20558;-88
2023/12/07 04:07:50;;;;;;;13.77;9.18;;;;;;;;;;5043987;28;20034;-88
2023/12/07 04:10:15;;;;;;;15.95;8.30;;;;;;;;;;5040367;28;20035;-87
2023/12/07 04:12:41;;;;;;;14.15;9.27;;;;;;;;;;5032586;28;20854;-87
2023/12/07 04:15:07;;;;;;;13.68;8.80;;;;;;;;;;5038281;28;20041;-88
2023/12/07 04:17:33;;;;;;;12.15;7.95;;;;;;;;;;5042555;28;20033;-87
2023/12/07 04:19:58;;;;;;;14.35;8.85;;;;;;;;;;5040998;28;20028;-88
2023/12/07 04:22:24;;;;;;;12.60;8.32;;;;;;;;;;5041827;28;20069;-87
2023/12/07 04:24:49;;;;;;;14.80;8.90;;;;;;;;;;5046443;28;20041;-86
2023/12/07 04:27:15;;;;;;;13.75;8.93;;;;;;;;;;5040517;28;20044;-88
2023/12/07 04:29:40;;;;;;;12.35;8.35;;;;;;;;;;5037916;28;20133;-88
2023/12/07 04:32:06;;;;;;;15.02;8.98;;;;;;;;;;5034328;28;20018;-87
2023/12/07 04:34:32;;;;;;;13.07;8.38;;;;;;;;;;5042082;28;20662;-87
2023/12/07 04:36:57;;;;;;;12.10;7.80;;;;;;;;;;5041089;28;20034;-87
2023/12/07 04:39:23;;;;;;;15.60;8.55;;;;;;;;;;5043995;28;20083;-88
2023/12/07 04:41:49;;;;;;;15.00;8.98;;;;;;;;;;5040679;28;20063;-88
2023/12/07 04:44:15;;;;;;;13.75;8.38;;;;;;;;;;5044519;28;20040;-87
2023/12/07 04:46:42;;;;;;;13.63;8.38;;;;;;;;;;5040982;28;20037;-87
2023/12/07 04:49:07;;;;;;;14.45;8.75;;;;;;;;;;5040742;28;20037;-87
2023/12/07 04:51:33;;;;;;;16.10;8.32;;;;;;;;;;5039764;28;20029;-87
2023/12/07 04:53:58;;;;;;;15.23;8.63;;;;;;;;;;5030263;28;20046;-87
2023/12/07 04:56:24;;;;;;;12.43;8.18;;;;;;;;;;5036807;28;20467;-87
2023/12/07 04:58:49;;;;;;;13.35;8.20;;;;;;;;;;5038176;28;20037;-86
2023/12/07 05:01:14;;;;;;;13.40;8.20;;;;;;;;;;5037823;28;20055;-87
2023/12/07 05:03:40;;;;;;;14.00;7.88;;;;;;;;;;5039710;28;20064;-87
2023/12/07 05:06:06;;;;;;;13.07;8.00;;;;;;;;;;5045742;28;20025;-87
2023/12/07 05:08:33;;;;;;;13.68;8.30;;;;;;;;;;5045344;28;20032;-87
2023/12/07 05:10:58;;;;;;;14.15;8.75;;;;;;;;;;5036244;28;20025;-86
2023/12/07 05:13:24;;;;;;;16.02;9.20;;;;;;;;;;5029422;28;20503;-86
2023/12/07 05:15:49;;;;;;;16.80;9.73;;;;;;;;;;5037071;28;20067;-86
2023/12/07 05:18:15;;;;;;;12.88;8.25;;;;;;;;;;5038707;28;20017;-88
2023/12/07 05:20:40;;;;;;;12.70;8.15;;;;;;;;;;5044546;28;20090;-87
2023/12/07 05:23:06;;;;;;;13.77;8.40;;;;;;;;;;5047179;28;20037;-87
2023/12/07 05:25:32;;;;;;;12.57;7.88;;;;;;;;;;5047274;28;20041;-88
2023/12/07 05:27:58;;;;;;;13.70;8.15;;;;;;;;;;5045886;28;20026;-87
2023/12/07 05:30:23;;;;;;;12.73;7.75;;;;;;;;;;5045995;28;20021;-88
2023/12/07 05:32:50;;;;;;;12.05;8.48;;;;;;;;;;5038685;28;20400;-88
2023/12/07 05:35:16;;;;;;;14.43;8.43;;;;;;;;;;5035274;28;20503;-87
2023/12/07 05:37:42;;;;;;;13.15;7.97;;;;;;;;;;5040598;28;20037;-86
2023/12/07 05:40:09;;;;;;;13.68;8.35;;;;;;;;;;5039337;28;20129;-87
2023/12/07 05:42:34;;;;;;;20.90;11.88;;;;;;;;;;5046192;28;20547;-87
2023/12/07 05:45:00;;;;;;;14.98;8.57;;;;;;;;;;5041568;28;20647;-87
2023/12/07 05:47:26;;;;;;;11.93;7.32;;;;;;;;;;5043171;28;20124;-87
2023/12/07 05:49:52;;;;;;;15.48;9.45;;;;;;;;;;5042601;28;20033;-87
2023/12/07 05:52:17;;;;;;;14.32;9.15;;;;;;;;;;5047683;28;20079;-87
2023/12/07 05:54:43;;;;;;;12.30;8.20;;;;;;;;;;5036972;28;20044;-88
2023/12/07 05:57:08;;;;;;;14.35;8.27;;;;;;;;;;5041582;28;20061;-87
2023/12/07 05:59:41;;;;;;;13.93;8.90;;;;;;;;;;5038906;28;20137;-87
2023/12/07 06:02:07;;;;;;;12.30;7.78;;;;;;;;;;5061096;28;20122;-85
2023/12/07 06:04:32;;;;;;;11.52;7.18;;;;;;;;;;5043925;28;20041;-86
2023/12/07 06:06:58;;;;;;;10.73;7.07;;;;;;;;;;5043605;28;20042;-87
2023/12/07 06:09:23;;;;;;;11.73;7.40;;;;;;;;;;5042298;28;20052;-88
2023/12/07 06:11:49;;;;;;;10.85;6.60;;;;;;;;;;5040449;28;20036;-86
2023/12/07 06:14:14;;;;;;;10.35;6.40;;;;;;;;;;5044387;28;20112;-88
2023/12/07 06:16:40;;;;;;;16.42;7.47;;;;;;;;;;5036561;28;20029;-86
2023/12/07 06:19:05;;;;;;;10.98;6.90;;;;;;;;;;5039608;28;20045;-86
2023/12/07 06:21:31;;;;;;;10.57;6.65;;;;;;;;;;5039061;28;20566;-87
2023/12/07 06:23:58;;;;;;;19.05;8.50;;;;;;;;;;5041310;28;20053;-86
2023/12/07 06:26:24;;;;;;;14.45;8.70;;;;;;;;;;5040770;28;20487;-86
2023/12/07 06:28:50;;;;;;;15.45;8.57;;;;;;;;;;5041560;28;20037;-87
2023/12/07 06:31:19;;;;;;;12.82;7.65;;;;;;;;;;5043588;28;20036;-86
2023/12/07 06:33:45;;;;;;;17.10;9.35;;;;;;;;;;5042063;28;20041;-86
2023/12/07 06:36:11;;;;;;;20.23;11.63;;;;;;;;;;5037007;28;20031;-84
2023/12/07 06:38:38;;;;;;;18.90;11.00;;;;;;;;;;5037540;28;20032;-84
2023/12/07 06:41:03;;;;;;;14.85;9.15;;;;;;;;;;5037800;28;20029;-84
2023/12/07 06:43:29;;;;;;;19.27;11.07;;;;;;;;;;5043105;28;20107;-85
2023/12/07 06:45:55;;;;;;;20.60;10.68;;;;;;;;;;5040762;28;20157;-86
2023/12/07 06:48:20;;;;;;;14.27;8.90;;;;;;;;;;5040414;28;20033;-85
2023/12/07 06:50:45;;;;;;;16.30;8.20;;;;;;;;;;5041651;28;20024;-85
2023/12/07 06:53:11;;;;;;;14.15;8.23;;;;;;;;;;5038511;28;20034;-84
2023/12/07 06:55:36;;;;;;;14.40;7.68;;;;;;;;;;5037431;28;20041;-85
2023/12/07 06:58:02;;;;;;;10.07;6.45;;;;;;;;;;5029961;28;20036;-86
2023/12/07 07:00:27;;;;;;;10.82;6.25;;;;;;;;;;5033532;28;20168;-86
2023/12/07 07:02:53;;;;;;;9.30;6.30;;;;;;;;;;5037656;28;20025;-86
2023/12/07 07:05:19;;;;;;;9.95;6.43;;;;;;;;;;5041209;28;20037;-86
2023/12/07 07:07:45;;;;;;;12.77;6.15;;;;;;;;;;5037622;28;20685;-84
2023/12/07 07:10:12;;;;;;;8.43;5.85;;;;;;;;;;5037540;28;20047;-84
2023/12/07 07:12:37;;;;;;;7.28;4.85;;;;;;;;;;5043168;28;20044;-85
2023/12/07 07:15:03;;;;;;;8.75;5.13;;;;;;;;;;5043229;28;20033;-84
2023/12/07 07:17:29;;;;;;;10.02;6.32;;;;;;;;;;5039598;28;20038;-84
2023/12/07 07:19:55;;;;;;;9.98;5.38;;;;;;;;;;5034188;28;20083;-84
2023/12/07 07:22:21;;;;;;;8.57;5.35;;;;;;;;;;5038126;28;20181;-83
2023/12/07 07:24:47;;;;;;;8.07;5.07;;;;;;;;;;5041457;28;20116;-84
2023/12/07 07:27:13;;;;;;;10.38;5.70;;;;;;;;;;5042853;28;20040;-82
2023/12/07 07:29:38;;;;;;;9.00;5.57;;;;;;;;;;5041803;28;20040;-84
2023/12/07 07:32:04;;;;;;;9.68;6.05;;;;;;;;;;5044296;28;20036;-82
2023/12/07 07:34:30;;;;;;;28.85;11.20;;;;;;;;;;5048234;28;20097;-85
2023/12/07 07:36:55;;;;;;;15.75;8.18;;;;;;;;;;5042700;28;20859;-84
2023/12/07 07:39:20;;;;;;;11.40;6.53;;;;;;;;;;5040355;28;20039;-85
2023/12/07 07:41:46;;;;;;;13.20;7.50;;;;;;;;;;5035330;28;20117;-87
2023/12/07 07:44:11;;;;;;;10.32;6.68;;;;;;;;;;5037646;28;20530;-85
2023/12/07 07:46:37;;;;;;;10.07;6.25;;;;;;;;;;5043696;28;20041;-85
2023/12/07 07:49:03;;;;;;;8.45;5.72;;;;;;;;;;5036897;28;20041;-85
2023/12/07 07:51:30;;;;;;;8.80;5.75;;;;;;;;;;5037513;28;20029;-86
2023/12/07 07:53:56;;;;;;;8.75;5.80;;;;;;;;;;5045668;28;20025;-85
2023/12/07 07:56:22;;;;;;;10.07;5.85;;;;;;;;;;5043460;28;20108;-84
2023/12/07 07:58:47;;;;;;;8.63;5.15;;;;;;;;;;5036407;28;20505;-87
2023/12/07 08:01:13;;;;;;;8.80;5.30;;;;;;;;;;5040288;28;20037;-86
2023/12/07 08:03:38;;;;;;;7.50;4.65;;;;;;;;;;5035693;28;20509;-85
2023/12/07 08:06:04;;;;;;;10.27;4.60;;;;;;;;;;5034317;28;20112;-85
2023/12/07 08:08:30;;;;;;;8.27;4.55;;;;;;;;;;5040716;28;20030;-85
2023/12/07 08:10:55;;;;;;;14.90;7.65;;;;;;;;;;5032447;28;21078;-87
2023/12/07 08:13:20;;;;;;;11.93;6.40;;;;;;;;;;5028462;28;20033;-85
2023/12/07 08:15:46;;;;;;;12.45;6.78;;;;;;;;;;5043412;28;20524;-85
2023/12/07 08:18:11;;;;;;;8.82;5.47;;;;;;;;;;5041478;28;20713;-88
2023/12/07 08:20:37;;;;;;;9.50;5.43;;;;;;;;;;5030425;28;20468;-87
2023/12/07 08:23:03;;;;;;;8.23;5.00;;;;;;;;;;5031126;28;20038;-88
2023/12/07 08:25:28;;;;;;;7.63;4.18;;;;;;;;;;5039692;28;20087;-86
2023/12/07 08:27:54;;;;;;;7.55;4.38;;;;;;;;;;5037925;28;20057;-87
2023/12/07 08:30:19;;;;;;;7.70;4.40;;;;;;;;;;5037158;28;20471;-87
2023/12/07 08:32:45;;;;;;;7.05;4.72;;;;;;;;;;5040312;28;20048;-86
2023/12/07 08:35:10;;;;;;;8.35;5.07;;;;;;;;;;5040980;28;20013;-87
2023/12/07 08:37:39;;;;;;;8.30;5.30;;;;;;;;;;5042418;28;20485;-86
2023/12/07 08:40:06;;;;;;;10.48;5.25;;;;;;;;;;5036966;28;20030;-87
2023/12/07 08:42:34;;;;;;;9.98;6.22;;;;;;;;;;5042640;28;20372;-87
2023/12/07 08:44:59;;;;;;;12.68;5.68;;;;;;;;;;5039308;28;20044;-87
2023/12/07 08:47:27;;;;;;;8.43;5.40;;;;;;;;;;5042939;28;20090;-88
2023/12/07 08:49:53;;;;;;;9.38;5.30;;;;;;;;;;5043978;28;20483;-85
2023/12/07 08:52:18;;;;;;;7.75;4.50;;;;;;;;;;5048507;28;20037;-86
2023/12/07 08:54:44;;;;;;;7.95;4.80;;;;;;;;;;5040523;28;20034;-86
2023/12/07 08:57:10;;;;;;;9.65;5.60;;;;;;;;;;5045964;28;20111;-86
2023/12/07 08:59:35;;;;;;;8.07;4.38;;;;;;;;;;5045745;28;20708;-87
2023/12/07 09:02:01;;;;;;;8.23;5.05;;;;;;;;;;5039007;28;20056;-87
2023/12/07 09:04:27;;;;;;;7.53;4.47;;;;;;;;;;5037260;28;20108;-87
2023/12/07 09:06:52;;;;;;;12.63;5.72;;;;;;;;;;5040730;28;20067;-86
2023/12/07 09:09:19;;;;;;;9.35;4.90;;;;;;;;;;5045571;28;20029;-85
2023/12/07 09:11:44;;;;;;;7.80;4.88;;;;;;;;;;5042352;28;20033;-86
2023/12/07 09:14:11;;;;;;;6.88;4.43;;;;;;;;;;5040634;28;20094;-86
2023/12/07 09:16:46;;;;;;;6.75;4.80;;;;;;;;;;5041402;28;20052;-89
2023/12/07 09:19:12;;;;;;;7.68;4.85;;;;;;;;;;5044730;28;20029;-87
2023/12/07 09:21:38;;;;;;;6.15;4.40;;;;;;;;;;5043008;28;20101;-88
2023/12/07 09:24:05;;;;;;;6.90;4.70;;;;;;;;;;5041077;28;20059;-88
2023/12/07 09:26:31;;;;;;;10.70;4.70;;;;;;;;;;5041511;28;20116;-86
2023/12/07 09:28:56;;;;;;;7.60;4.68;;;;;;;;;;5042063;28;20057;-85
2023/12/07 09:31:22;;;;;;;8.48;4.63;;;;;;;;;;5035679;28;20025;-86
2023/12/07 09:33:47;;;;;;;7.28;4.60;;;;;;;;;;5041311;28;20087;-86
2023/12/07 09:36:18;;;;;;;7.53;4.53;;;;;;;;;;5041221;28;20406;-85
2023/12/07 09:38:43;;;;;;;7.15;4.68;;;;;;;;;;5044761;28;20549;-85
2023/12/07 09:41:09;;;;;;;8.02;4.43;;;;;;;;;;5047414;28;20037;-87
2023/12/07 09:43:35;;;;;;;9.82;4.18;;;;;;;;;;5043284;28;20147;-85
2023/12/07 09:46:00;;;;;;;7.05;4.30;;;;;;;;;;5035514;28;20041;-87
2023/12/07 09:48:26;;;;;;;8.82;5.00;;;;;;;;;;5041898;28;20544;-85
2023/12/07 09:50:54;;;;;;;7.30;5.10;;;;;;;;;;5040491;28;20048;-85
2023/12/07 09:53:20;;;;;;;7.57;4.45;;;;;;;;;;5015269;28;20032;-85
2023/12/07 09:55:46;;;;;;;7.10;4.03;;;;;;;;;;5038992;28;20112;-86
2023/12/07 09:58:12;;;;;;;7.90;4.10;;;;;;;;;;5046039;28;20025;-88
2023/12/07 10:00:37;;;;;;;7.00;3.97;;;;;;;;;;5044863;28;20041;-87
2023/12/07 10:03:04;;;;;;;6.72;4.30;;;;;;;;;;5037276;28;20095;-88
2023/12/07 10:05:29;;;;;;;8.15;4.38;;;;;;;;;;5040873;28;20041;-85
2023/12/07 10:07:55;;;;;;;8.38;4.20;;;;;;;;;;5039733;28;20163;-85
2023/12/07 10:10:20;;;;;;;8.52;5.32;;;;;;;;;;5039870;28;20048;-84
2023/12/07 10:12:54;;;;;;;6.53;4.18;;;;;;;;;;5041279;28;20043;-83
2023/12/07 10:15:20;;;;;;;;;;;;;;;;;;5042314;28;20036;-83
2023/12/07 10:17:58;;;;;;;7.05;3.78;;;;;;;;;;5039420;28;19913;-84
2023/12/07 10:20:25;;;;;;;12.32;4.40;;;;;;;;;;5043593;28;20059;-86
2023/12/07 10:23:04;;;;;;;10.15;4.35;;;;;;;;;;5047039;28;20021;-85
2023/12/07 10:25:31;;;;;;;6.38;3.80;;;;;;;;;;5042974;28;20068;-85
2023/12/07 10:27:56;;;;;;;6.40;3.90;;;;;;;;;;5039359;28;20403;-86
2023/12/07 10:30:25;;;;;;;7.10;4.03;;;;;;;;;;5038708;28;20087;-86
2023/12/07 10:32:52;;;;;;;6.97;4.43;;;;;;;;;;5039812;28;20033;-84
2023/12/07 10:35:19;;;;;;;6.43;4.05;;;;;;;;;;5036495;28;20033;-84
2023/12/07 10:37:46;;;;;;;7.88;4.55;;;;;;;;;;5039027;28;20041;-87
2023/12/07 10:40:12;;;;;;;6.63;4.43;;;;;;;;;;5040476;28;20029;-87
2023/12/07 10:42:41;;;;;;;7.10;4.28;;;;;;;;;;5039709;28;20091;-85
2023/12/07 10:45:07;;;;;;;7.70;4.30;;;;;;;;;;5030116;28;20499;-86
2023/12/07 10:47:38;;;;;;;9.00;5.40;;;;;;;;;;5035482;28;20024;-87
2023/12/07 10:50:10;;;;;;;8.52;4.80;;;;;;;;;;5032095;28;20034;-87
2023/12/07 10:52:43;;;;;;;42.37;28.17;;;;;;;;;;5044261;28;20044;-86
2023/12/07 10:55:17;;;;;;;8.82;5.50;;;;;;;;;;5040421;28;20040;-85
2023/12/07 10:57:44;;;;;;;13.02;8.90;;;;;;;;;;5043814;28;20025;-87
2023/12/07 11:00:11;;;;;;;6.30;4.03;;;;;;;;;;5036117;28;20040;-85
2023/12/07 11:02:39;;;;;;;7.07;4.00;;;;;;;;;;5038570;28;20029;-85
2023/12/07 11:05:06;;;;;;;12.38;8.13;;;;;;;;;;5042716;28;20029;-85
2023/12/07 11:07:47;;;;;;;7.10;4.60;;;;;;;;;;5044436;28;20089;-86
2023/12/07 11:10:21;;;;;;;7.32;4.07;;;;;;;;;;5040431;28;20037;-85
2023/12/07 11:12:53;;;;;;;5.45;3.33;;;;;;;;;;5037439;28;20037;-87
2023/12/07 11:15:19;;;;;;;7.65;5.13;;;;;;;;;;5041167;28;20061;-86
2023/12/07 11:17:53;;;;;;;7.90;4.05;;;;;;;;;;5037267;28;20048;-88
2023/12/07 11:20:20;;;;;;;6.75;3.53;;;;;;;;;;5042325;28;20037;-87
2023/12/07 11:22:46;;;;;;;5.18;3.08;;;;;;;;;;5035997;28;20048;-89
2023/12/07 11:25:12;;;;;;;6.35;3.00;;;;;;;;;;5036857;28;20026;-86
2023/12/07 11:27:37;;;;;;;5.38;3.30;;;;;;;;;;5037450;28;20039;-87
2023/12/07 11:30:03;;;;;;;5.70;3.20;;;;;;;;;;5039435;28;20307;-86
2023/12/07 11:32:29;;;;;;;4.85;3.65;;;;;;;;;;5036292;28;20041;-87
2023/12/07 11:35:01;;;;;;;5.32;3.15;;;;;;;;;;5032659;28;20108;-87
2023/12/07 11:38:06;;;;;;;7.43;3.20;;;;;;;;;;5039156;28;20602;-87
2023/12/07 11:40:35;;;;;;;5.65;3.08;;;;;;;;;;5039087;28;20052;-86
2023/12/07 11:43:01;;;;;;;4.20;2.63;;;;;;;;;;5040710;28;20395;-87
2023/12/07 11:45:48;;;;;;;4.15;2.58;;;;;;;;;;5043941;28;20037;-87
2023/12/07 11:48:17;;;;;;;4.22;2.80;;;;;;;;;;5036194;28;20045;-87
2023/12/07 11:50:58;;;;;;;4.90;2.75;;;;;;;;;;5039033;28;20067;-87
2023/12/07 11:53:31;;;;;;;4.15;2.40;;;;;;;;;;5041161;28;20079;-86
2023/12/07 11:55:58;;;;;;;4.43;2.80;;;;;;;;;;5040854;28;20037;-87
2023/12/07 11:58:27;;;;;;;4.03;2.70;;;;;;;;;;5040174;28;20099;-87
2023/12/07 12:00:53;;;;;;;5.38;2.70;;;;;;;;;;5038871;28;20033;-87
2023/12/07 12:03:20;;;;;;;5.80;3.28;;;;;;;;;;5039071;28;20056;-88
2023/12/07 12:05:46;;;;;;;5.05;2.67;;;;;;;;;;5039454;28;20036;-87
2023/12/07 12:08:12;;;;;;;5.05;2.72;;;;;;;;;;5034987;28;20462;-88
2023/12/07 12:10:42;;;;;;;5.95;2.72;;;;;;;;;;5038387;28;20074;-87
2023/12/07 12:13:08;;;;;;;4.68;2.97;;;;;;;;;;5037814;28;20044;-87
2023/12/07 12:15:34;;;;;;;7.22;4.50;;;;;;;;;;5040913;28;20029;-87
2023/12/07 12:18:00;;;;;;;6.53;3.13;;;;;;;;;;5034341;28;20496;-87
2023/12/07 12:20:26;;;;;;;9.10;4.57;;;;;;;;;;5039653;28;20044;-86
2023/12/07 12:22:54;;;;;;;5.18;2.90;;;;;;;;;;5034122;28;20037;-88
2023/12/07 12:25:25;;;;;;;4.80;2.78;;;;;;;;;;5039311;28;20021;-87
2023/12/07 12:27:53;;;;;;;8.43;3.67;;;;;;;;;;5047177;28;20072;-88
2023/12/07 12:30:20;;;;;;;4.82;3.13;;;;;;;;;;5037469;28;20484;-88
2023/12/07 12:32:46;;;;;;;4.72;2.78;;;;;;;;;;5041068;28;20078;-87
2023/12/07 12:35:14;;;;;;;4.68;2.90;;;;;;;;;;5040092;28;20037;-87
2023/12/07 12:37:42;;;;;;;4.40;2.75;;;;;;;;;;5048334;28;20056;-88
2023/12/07 12:40:10;;;;;;;5.50;3.10;;;;;;;;;;5040288;28;20034;-88
2023/12/07 12:42:37;;;;;;;4.18;3.10;;;;;;;;;;5042746;28;20078;-88
2023/12/07 12:45:04;;;;;;;5.25;3.20;;;;;;;;;;5041425;28;20041;-88
2023/12/07 12:47:29;;;;;;;5.05;3.50;;;;;;;;;;5039546;28;20093;-88
2023/12/07 12:49:55;;;;;;;6.90;3.40;;;;;;;;;;5039646;28;20069;-87
2023/12/07 12:52:20;;;;;;;5.72;3.40;;;;;;;;;;5039795;28;20078;-87
2023/12/07 12:54:48;;;;;;;8.35;3.90;;;;;;;;;;5035963;28;20099;-87
2023/12/07 12:57:14;;;;;;;184.35;81.30;;;;;;;;;;5041770;28;20025;-87
2023/12/07 12:59:39;;;;;;;38.65;17.17;;;;;;;;;;5037870;28;20451;-87
2023/12/07 13:02:05;;;;;;;143.95;61.67;;;;;;;;;;5039602;28;20164;-87
2023/12/07 13:04:31;;;;;;;53.72;24.92;;;;;;;;;;5036206;28;20030;-88
2023/12/07 13:06:56;;;;;;;55.03;28.58;;;;;;;;;;5040233;28;20120;-88
2023/12/07 13:09:22;;;;;;;65.63;34.88;;;;;;;;;;5035870;28;20128;-88
2023/12/07 13:11:48;;;;;;;14.55;8.90;;;;;;;;;;5032934;28;20033;-87
2023/12/07 13:14:14;;;;;;;18.67;10.05;;;;;;;;;;5035615;28;20147;-87
2023/12/07 13:16:40;;;;;;;80.90;43.30;;;;;;;;;;5039453;28;20057;-87
2023/12/07 13:19:06;;;;;;;10.35;6.95;;;;;;;;;;5039370;28;20068;-88
2023/12/07 13:21:32;;;;;;;17.15;10.90;;;;;;;;;;5038943;28;20052;-88
2023/12/07 13:23:58;;;;;;;8.88;4.78;;;;;;;;;;5032442;28;20065;-88
2023/12/07 13:26:24;;;;;;;16.15;9.32;;;;;;;;;;5046449;28;20045;-89
2023/12/07 13:28:50;;;;;;;9.25;5.65;;;;;;;;;;5046819;28;20040;-88
2023/12/07 13:31:16;;;;;;;8.20;5.53;;;;;;;;;;5049560;28;20021;-87
2023/12/07 13:33:41;;;;;;;15.35;11.13;;;;;;;;;;5044988;28;20343;-87
2023/12/07 13:36:07;;;;;;;29.08;12.82;;;;;;;;;;5039613;28;20030;-88
2023/12/07 13:38:34;;;;;;;23.77;10.25;;;;;;;;;;5045157;28;20045;-87
2023/12/07 13:41:00;;;;;;;8.20;3.67;;;;;;;;;;5042575;28;20025;-87
2023/12/07 13:43:25;;;;;;;5.60;3.20;;;;;;;;;;5048080;28;20695;-87
2023/12/07 13:45:51;;;;;;;6.60;3.20;;;;;;;;;;5033278;28;20046;-87
2023/12/07 13:48:18;;;;;;;4.60;3.22;;;;;;;;;;5040964;28;20033;-87
2023/12/07 13:50:43;;;;;;;7.03;3.45;;;;;;;;;;5043169;28;20121;-88
2023/12/07 13:53:12;;;;;;;7.30;4.72;;;;;;;;;;5041862;28;20057;-87
2023/12/07 13:55:39;;;;;;;11.00;5.47;;;;;;;;;;5024200;28;20087;-88
2023/12/07 13:58:06;;;;;;;6.63;4.10;;;;;;;;;;5043115;28;20388;-86
2023/12/07 14:00:32;;;;;;;5.00;3.45;;;;;;;;;;5043051;28;20045;-87
2023/12/07 14:02:58;;;;;;;8.65;5.22;;;;;;;;;;5036333;28;20491;-86
2023/12/07 14:05:24;;;;;;;11.40;6.18;;;;;;;;;;5035651;28;20021;-86
2023/12/07 14:07:50;;;;;;;6.10;3.90;;;;;;;;;;5042422;28;20051;-86
2023/12/07 14:10:16;;;;;;;6.45;3.50;;;;;;;;;;5026377;28;20120;-86
2023/12/07 14:12:41;;;;;;;8.43;2.78;;;;;;;;;;5043320;28;20037;-86
2023/12/07 14:15:07;;;;;;;4.65;2.92;;;;;;;;;;5042333;28;20025;-87
2023/12/07 14:17:37;;;;;;;5.88;2.60;;;;;;;;;;5036588;28;20521;-87
2023/12/07 14:20:09;;;;;;;3.83;2.60;;;;;;;;;;5038425;28;20037;-87
2023/12/07 14:22:35;;;;;;;4.55;2.78;;;;;;;;;;5039327;28;20055;-86
2023/12/07 14:25:01;;;;;;;5.53;3.05;;;;;;;;;;5037928;28;20446;-86
2023/12/07 14:27:27;;;;;;;8.18;3.03;;;;;;;;;;5038560;28;20033;-86
2023/12/07 14:29:53;;;;;;;5.50;3.17;;;;;;;;;;5035340;28;20037;-86
2023/12/07 14:32:18;;;;;;;5.90;3.17;;;;;;;;;;5037400;28;20077;-85